createdAt,value
2018-03-24T00:01:47.667Z,6.10
2018-03-24T00:04:14.325Z,6.00
2018-03-24T00:06:40.910Z,5.80
2018-03-24T00:09:07.087Z,5.80
2018-03-24T00:11:33.311Z,5.80
2018-03-24T00:13:59.568Z,5.90
2018-03-24T00:16:25.773Z,6.10
2018-03-24T00:18:52.005Z,6.10
2018-03-24T00:21:18.597Z,5.90
2018-03-24T00:23:44.794Z,5.90
2018-03-24T00:26:11.022Z,5.80
2018-03-24T00:28:37.279Z,5.80
2018-03-24T00:31:03.498Z,5.70
2018-03-24T00:33:29.723Z,5.60
2018-03-24T00:35:55.958Z,5.60
2018-03-24T00:38:22.159Z,5.60
2018-03-24T00:40:48.362Z,5.40
2018-03-24T00:43:14.948Z,5.30
2018-03-24T00:45:41.176Z,5.30
2018-03-24T00:48:07.423Z,5.20
2018-03-24T00:50:33.636Z,5.10
2018-03-24T00:52:59.876Z,5.10
2018-03-24T00:55:26.154Z,5.10
2018-03-24T00:57:52.371Z,5.00
2018-03-24T01:00:18.981Z,4.80
2018-03-24T01:02:45.236Z,4.90
2018-03-24T01:05:11.832Z,4.80
2018-03-24T01:07:39.032Z,4.80
2018-03-24T01:10:05.535Z,4.80
2018-03-24T01:12:31.744Z,4.80
2018-03-24T01:14:57.936Z,4.60
2018-03-24T01:17:24.168Z,4.50
2018-03-24T01:19:50.395Z,4.50
2018-03-24T01:22:16.590Z,4.40
2018-03-24T01:24:42.834Z,4.40
2018-03-24T01:27:09.067Z,4.30
2018-03-24T01:29:35.273Z,4.30
2018-03-24T01:32:01.878Z,4.00
2018-03-24T01:34:28.108Z,4.00
2018-03-24T01:36:54.340Z,4.00
2018-03-24T01:39:20.527Z,3.90
2018-03-24T01:41:46.751Z,3.90
2018-03-24T01:44:12.947Z,3.80
2018-03-24T01:46:39.511Z,3.80
2018-03-24T01:49:05.725Z,3.80
2018-03-24T01:51:31.973Z,3.80
2018-03-24T01:53:58.153Z,3.80
2018-03-24T01:56:24.368Z,3.80
2018-03-24T01:58:50.633Z,3.70
2018-03-24T02:01:16.867Z,3.70
2018-03-24T02:03:43.093Z,3.80
2018-03-24T02:06:09.320Z,3.90
2018-03-24T02:08:35.515Z,3.90
2018-03-24T02:11:02.685Z,4.00
2018-03-24T02:13:29.835Z,3.80
2018-03-24T02:15:56.090Z,3.90
2018-03-24T02:18:22.326Z,4.00
2018-03-24T02:20:48.587Z,3.90
2018-03-24T02:23:14.800Z,4.10
2018-03-24T02:25:41.100Z,4.20
2018-03-24T02:28:08.281Z,4.20
2018-03-24T02:30:34.522Z,4.30
2018-03-24T02:33:00.757Z,4.30
2018-03-24T02:35:26.959Z,4.30
2018-03-24T02:37:53.173Z,4.20
2018-03-24T02:40:19.429Z,4.20
2018-03-24T02:42:45.640Z,4.20
2018-03-24T02:45:11.905Z,4.20
2018-03-24T02:47:38.118Z,4.20
2018-03-24T02:50:04.358Z,4.10
2018-03-24T02:52:30.589Z,4.00
2018-03-24T02:54:56.811Z,4.00
2018-03-24T02:57:23.064Z,4.10
2018-03-24T02:59:50.626Z,4.30
2018-03-24T03:02:17.296Z,4.30
2018-03-24T03:04:43.503Z,4.30
2018-03-24T03:07:09.693Z,4.30
2018-03-24T03:09:35.929Z,4.30
2018-03-24T03:12:02.552Z,4.30
2018-03-24T03:14:28.751Z,4.30
2018-03-24T03:16:54.991Z,4.30
2018-03-24T03:19:21.233Z,4.40
2018-03-24T03:21:51.507Z,4.40
2018-03-24T03:24:17.731Z,4.30
2018-03-24T03:26:43.956Z,4.20
2018-03-24T03:29:10.171Z,4.50
2018-03-24T03:31:36.436Z,4.60
2018-03-24T03:34:02.726Z,4.50
2018-03-24T03:36:28.937Z,4.40
2018-03-24T03:38:55.171Z,4.40
2018-03-24T03:41:21.374Z,4.50
2018-03-24T03:43:47.588Z,4.40
2018-03-24T03:46:14.147Z,4.40
2018-03-24T03:48:40.365Z,4.40
2018-03-24T03:51:06.568Z,4.40
2018-03-24T03:53:32.804Z,4.50
2018-03-24T03:55:59.028Z,4.50
2018-03-24T03:58:25.236Z,4.50
2018-03-24T04:00:51.485Z,4.60
2018-03-24T04:03:17.718Z,4.70
2018-03-24T04:05:43.900Z,4.60
2018-03-24T04:08:10.115Z,4.60
2018-03-24T04:10:36.335Z,4.70
2018-03-24T04:13:02.562Z,4.80
2018-03-24T04:15:28.813Z,4.80
2018-03-24T04:17:55.009Z,4.80
2018-03-24T04:20:21.213Z,4.90
2018-03-24T04:22:47.441Z,4.80
2018-03-24T04:25:13.663Z,4.80
2018-03-24T04:27:39.857Z,4.80
2018-03-24T04:30:06.460Z,4.80
2018-03-24T04:32:32.730Z,4.80
2018-03-24T04:34:58.940Z,4.90
2018-03-24T04:37:25.901Z,4.80
2018-03-24T04:39:52.116Z,4.80
2018-03-24T04:42:18.707Z,4.70
2018-03-24T04:44:44.943Z,4.70
2018-03-24T04:47:11.163Z,4.60
2018-03-24T04:49:37.385Z,4.60
2018-03-24T04:52:03.980Z,4.70
2018-03-24T04:54:30.593Z,4.30
2018-03-24T04:56:56.806Z,4.40
2018-03-24T04:59:23.015Z,4.30
2018-03-24T05:01:49.233Z,4.40
2018-03-24T05:04:16.208Z,4.50
2018-03-24T05:06:42.451Z,4.30
2018-03-24T05:09:08.685Z,4.30
2018-03-24T05:11:34.941Z,4.40
2018-03-24T05:14:01.157Z,4.40
2018-03-24T05:16:27.740Z,4.50
2018-03-24T05:18:53.982Z,4.60
2018-03-24T05:21:20.261Z,4.50
2018-03-24T05:23:46.472Z,4.50
2018-03-24T05:26:12.738Z,4.40
2018-03-24T05:28:38.922Z,4.40
2018-03-24T05:31:05.130Z,4.50
2018-03-24T05:33:31.344Z,4.50
2018-03-24T05:35:57.534Z,4.60
2018-03-24T05:38:23.761Z,4.50
2018-03-24T05:40:49.990Z,4.60
2018-03-24T05:43:16.205Z,4.60
2018-03-24T05:45:42.459Z,4.60
2018-03-24T05:48:08.675Z,4.50
2018-03-24T05:50:34.901Z,4.60
2018-03-24T05:53:01.145Z,4.70
2018-03-24T05:55:27.355Z,4.70
2018-03-24T05:57:53.551Z,4.70
2018-03-24T06:00:20.193Z,4.50
2018-03-24T06:02:46.789Z,4.50
2018-03-24T06:05:13.000Z,4.40
2018-03-24T06:07:39.221Z,4.50
2018-03-24T06:10:05.434Z,4.70
2018-03-24T06:12:31.644Z,4.50
2018-03-24T06:14:57.909Z,4.50
2018-03-24T06:17:24.215Z,4.60
2018-03-24T06:19:50.438Z,4.70
2018-03-24T06:22:16.678Z,4.60
2018-03-24T06:24:42.907Z,4.60
2018-03-24T06:27:09.170Z,4.60
2018-03-24T06:29:35.382Z,4.60
2018-03-24T06:32:01.696Z,4.70
2018-03-24T06:34:28.012Z,4.80
2018-03-24T06:36:55.645Z,5.10
2018-03-24T06:39:21.945Z,5.00
2018-03-24T06:41:48.188Z,5.20
2018-03-24T06:44:14.456Z,5.30
2018-03-24T06:46:40.642Z,5.40
2018-03-24T06:49:06.854Z,5.40
2018-03-24T06:51:33.105Z,5.50
2018-03-24T06:53:59.304Z,5.50
2018-03-24T06:56:25.509Z,5.50
2018-03-24T06:58:51.764Z,5.50
2018-03-24T07:01:18.874Z,5.50
2018-03-24T07:03:45.079Z,5.50
2018-03-24T07:06:11.323Z,5.60
2018-03-24T07:08:37.529Z,5.60
2018-03-24T07:11:03.807Z,5.70
2018-03-24T07:13:30.021Z,5.70
2018-03-24T07:15:56.262Z,5.80
2018-03-24T07:18:22.480Z,5.70
2018-03-24T07:20:48.688Z,5.80
2018-03-24T07:23:15.538Z,5.90
2018-03-24T07:25:41.761Z,5.90
2018-03-24T07:28:07.987Z,6.10
2018-03-24T07:30:34.201Z,6.20
2018-03-24T07:33:00.477Z,6.30
2018-03-24T07:35:26.855Z,6.30
2018-03-24T07:37:53.072Z,6.40
2018-03-24T07:40:19.280Z,6.50
2018-03-24T07:42:45.505Z,6.60
2018-03-24T07:45:11.780Z,6.80
2018-03-24T07:47:38.083Z,6.90
2018-03-24T07:50:04.657Z,7.10
2018-03-24T07:52:30.924Z,7.20
2018-03-24T07:54:57.132Z,7.20
2018-03-24T07:57:23.359Z,7.10
2018-03-24T07:59:50.081Z,7.20
2018-03-24T08:02:16.655Z,7.40
2018-03-24T08:04:42.850Z,7.40
2018-03-24T08:07:09.090Z,7.40
2018-03-24T08:09:35.315Z,7.20
2018-03-24T08:12:01.547Z,7.30
2018-03-24T08:14:27.785Z,7.20
2018-03-24T08:16:54.053Z,7.00
2018-03-24T08:19:20.234Z,7.00
2018-03-24T08:21:47.514Z,7.00
2018-03-24T08:24:13.771Z,7.00
2018-03-24T08:26:39.995Z,7.00
2018-03-24T08:29:06.241Z,7.30
2018-03-24T08:31:32.862Z,7.40
2018-03-24T08:33:59.062Z,7.40
2018-03-24T08:36:25.741Z,7.60
2018-03-24T08:38:52.332Z,7.70
2018-03-24T08:41:18.595Z,7.70
2018-03-24T08:43:45.250Z,7.70
2018-03-24T08:46:11.874Z,7.60
2018-03-24T08:48:38.090Z,7.60
2018-03-24T08:51:04.366Z,7.60
2018-03-24T08:53:30.588Z,7.60
2018-03-24T08:55:56.790Z,7.90
2018-03-24T08:58:23.447Z,8.00
2018-03-24T09:00:50.008Z,8.10
2018-03-24T09:03:16.311Z,8.10
2018-03-24T09:05:42.905Z,8.40
2018-03-24T09:08:09.141Z,8.40
2018-03-24T09:10:35.376Z,8.50
2018-03-24T09:13:01.625Z,8.60
2018-03-24T09:15:28.217Z,9.00
2018-03-24T09:17:54.466Z,9.00
2018-03-24T09:20:20.716Z,9.10
2018-03-24T09:22:47.347Z,9.40
2018-03-24T09:25:13.951Z,9.40
2018-03-24T09:27:40.458Z,9.40
2018-03-24T09:30:06.653Z,9.60
2018-03-24T09:32:33.249Z,9.80
2018-03-24T09:34:59.591Z,9.80
2018-03-24T09:37:25.780Z,10.00
2018-03-24T09:39:51.964Z,10.40
2018-03-24T09:42:18.236Z,10.60
2018-03-24T09:44:44.496Z,10.70
2018-03-24T09:47:10.711Z,10.80
2018-03-24T09:49:37.303Z,11.00
2018-03-24T09:52:03.547Z,11.20
2018-03-24T09:54:29.806Z,11.30
2018-03-24T09:56:56.089Z,11.40
2018-03-24T09:59:22.354Z,11.50
2018-03-24T10:01:48.605Z,11.70
2018-03-24T10:04:14.854Z,11.80
2018-03-24T10:06:41.096Z,12.00
2018-03-24T10:09:07.722Z,12.80
2018-03-24T10:11:34.358Z,13.20
2018-03-24T10:14:00.975Z,13.70
2018-03-24T10:16:27.250Z,13.70
2018-03-24T10:18:53.513Z,14.00
2018-03-24T10:21:35.755Z,14.50
2018-03-24T10:24:07.003Z,15.00
2018-03-24T10:26:33.664Z,16.20
2018-03-24T10:28:59.913Z,16.20
2018-03-24T10:31:26.148Z,17.30
2018-03-24T10:33:58.354Z,19.20
2018-03-24T10:36:24.615Z,21.10
2018-03-24T10:38:50.837Z,23.20
2018-03-24T10:41:17.086Z,25.30
2018-03-24T10:43:43.348Z,27.50
2018-03-24T10:46:09.621Z,29.60
2018-03-24T10:48:36.241Z,31.80
2018-03-24T10:51:02.799Z,31.80
2018-03-24T10:53:29.052Z,32.80
2018-03-24T10:55:55.301Z,34.20
2018-03-24T10:58:21.588Z,35.20
2018-03-24T11:00:54.302Z,37.40
2018-03-24T11:03:20.520Z,37.40
2018-03-24T11:05:46.800Z,38.90
2018-03-24T11:08:13.060Z,39.20
2018-03-24T11:10:39.308Z,39.70
2018-03-24T11:13:05.586Z,39.90
2018-03-24T11:15:31.841Z,40.70
2018-03-24T11:17:58.078Z,41.00
2018-03-24T11:20:24.377Z,41.70
2018-03-24T11:22:57.581Z,41.70
2018-03-24T11:25:24.700Z,42.20
2018-03-24T11:27:50.973Z,41.90
2018-03-24T11:30:17.223Z,41.80
2018-03-24T11:32:43.477Z,41.80
2018-03-24T11:35:09.799Z,42.00
2018-03-24T11:37:36.024Z,41.50
2018-03-24T11:40:02.606Z,41.50
2018-03-24T11:42:28.910Z,40.70
2018-03-24T11:44:55.172Z,40.20
2018-03-24T11:47:21.376Z,40.10
2018-03-24T11:49:47.622Z,39.20
2018-03-24T11:52:13.852Z,39.50
2018-03-24T11:54:42.772Z,40.80
2018-03-24T11:57:09.047Z,40.80
2018-03-24T11:59:35.256Z,40.60
2018-03-24T12:02:01.510Z,40.90
2018-03-24T12:04:27.789Z,41.20
2018-03-24T12:06:54.022Z,41.80
2018-03-24T12:09:21.677Z,41.70
2018-03-24T12:11:47.915Z,41.00
2018-03-24T12:14:15.166Z,40.80
2018-03-24T12:16:41.441Z,40.80
2018-03-24T12:19:07.766Z,41.20
2018-03-24T12:21:34.083Z,41.10
2018-03-24T12:24:00.324Z,40.50
2018-03-24T12:26:26.599Z,40.30
2018-03-24T12:28:52.840Z,40.10
2018-03-24T12:31:19.112Z,40.20
2018-03-24T12:33:46.522Z,39.00
2018-03-24T12:36:12.770Z,39.00
2018-03-24T12:38:39.909Z,39.00
2018-03-24T12:41:06.501Z,38.50
2018-03-24T12:43:32.746Z,38.00
2018-03-24T12:45:58.995Z,37.40
2018-03-24T12:48:25.241Z,36.70
2018-03-24T12:50:51.505Z,36.10
2018-03-24T12:53:18.188Z,33.70
2018-03-24T12:55:44.479Z,33.70
2018-03-24T12:58:11.170Z,31.50
2018-03-24T13:00:37.448Z,31.60
2018-03-24T13:03:03.690Z,30.80
2018-03-24T13:05:30.892Z,29.50
2018-03-24T13:07:57.936Z,28.40
2018-03-24T13:10:24.196Z,27.70
2018-03-24T13:12:50.456Z,27.00
2018-03-24T13:15:16.734Z,26.30
2018-03-24T13:17:43.021Z,25.00
2018-03-24T13:20:09.620Z,24.70
2018-03-24T13:22:36.216Z,24.10
2018-03-24T13:25:02.494Z,24.10
2018-03-24T13:27:28.769Z,23.70
2018-03-24T13:29:54.983Z,23.30
2018-03-24T13:32:21.203Z,23.80
2018-03-24T13:34:47.477Z,23.90
2018-03-24T13:37:13.733Z,23.90
2018-03-24T13:39:40.061Z,23.60
2018-03-24T13:42:06.686Z,22.80
2018-03-24T13:44:32.970Z,22.80
2018-03-24T13:46:59.266Z,22.50
2018-03-24T13:49:25.487Z,22.10
2018-03-24T13:51:51.793Z,22.00
2018-03-24T13:54:18.061Z,22.30
2018-03-24T13:56:44.385Z,22.00
2018-03-24T13:59:10.645Z,22.20
2018-03-24T14:01:36.897Z,22.30
2018-03-24T14:04:03.183Z,22.40
2018-03-24T14:06:29.415Z,22.10
2018-03-24T14:08:55.995Z,22.10
2018-03-24T14:11:22.220Z,22.20
2018-03-24T14:13:48.502Z,22.00
2018-03-24T14:16:14.787Z,21.50
2018-03-24T14:18:41.023Z,21.20
2018-03-24T14:21:07.271Z,21.00
2018-03-24T14:23:33.891Z,20.90
2018-03-24T14:26:00.195Z,20.90
2018-03-24T14:28:26.451Z,20.70
2018-03-24T14:30:52.720Z,20.60
2018-03-24T14:33:18.950Z,20.90
2018-03-24T14:35:45.206Z,20.70
2018-03-24T14:38:11.855Z,20.60
2018-03-24T14:40:38.126Z,20.50
2018-03-24T14:43:04.382Z,20.50
2018-03-24T14:45:30.680Z,20.50
2018-03-24T14:47:56.905Z,20.50
2018-03-24T14:50:23.169Z,20.60
2018-03-24T14:52:49.535Z,20.70
2018-03-24T14:55:15.732Z,20.60
2018-03-24T14:57:42.023Z,20.70
2018-03-24T15:00:08.714Z,20.40
2018-03-24T15:02:34.936Z,20.40
2018-03-24T15:05:01.207Z,20.10
2018-03-24T15:07:27.865Z,19.90
2018-03-24T15:09:54.096Z,19.90
2018-03-24T15:12:20.446Z,20.00
2018-03-24T15:14:46.640Z,19.70
2018-03-24T15:17:12.905Z,19.60
2018-03-24T15:19:39.134Z,19.40
2018-03-24T15:22:05.826Z,19.60
2018-03-24T15:24:32.051Z,19.90
2018-03-24T15:26:58.675Z,19.60
2018-03-24T15:42:47.985Z,19.00
2018-03-24T15:45:14.279Z,19.00
2018-03-24T15:47:40.593Z,18.60
2018-03-24T15:50:06.880Z,18.40
2018-03-24T15:52:33.154Z,18.20
2018-03-24T15:54:59.421Z,18.10
2018-03-24T15:57:25.983Z,18.00
2018-03-24T15:59:52.287Z,17.80
2018-03-24T16:02:18.534Z,17.60
2018-03-24T16:04:44.832Z,17.30
2018-03-24T16:07:11.117Z,17.10
2018-03-24T16:09:37.390Z,16.80
2018-03-24T16:12:03.746Z,16.30
2018-03-24T16:14:30.015Z,16.00
2018-03-24T16:16:56.301Z,15.90
2018-03-24T16:19:22.614Z,16.00
2018-03-24T16:21:49.008Z,15.80
2018-03-24T16:24:15.363Z,15.60
2018-03-24T16:26:41.681Z,15.50
2018-03-24T16:29:08.360Z,14.90
2018-03-24T16:31:34.665Z,14.90
2018-03-24T16:34:01.026Z,14.60
2018-03-24T16:36:27.331Z,14.60
2018-03-24T16:38:53.587Z,14.40
2018-03-24T16:41:19.942Z,14.40
2018-03-24T16:43:46.608Z,14.30
2018-03-24T16:46:13.244Z,14.10
2018-03-24T16:48:39.538Z,14.20
2018-03-24T16:51:05.804Z,14.20
2018-03-24T16:53:32.462Z,13.70
2018-03-24T16:55:58.997Z,13.70
2018-03-24T16:58:25.287Z,13.50
2018-03-24T17:00:51.513Z,13.30
2018-03-24T17:03:17.796Z,13.30
2018-03-24T17:05:44.011Z,13.40
2018-03-24T17:08:11.464Z,13.40
2018-03-24T17:10:38.596Z,13.10
2018-03-24T17:13:04.877Z,13.10
2018-03-24T17:15:31.130Z,12.90
2018-03-24T17:17:57.438Z,12.90
2018-03-24T17:20:23.687Z,12.90
2018-03-24T17:22:49.996Z,12.60
2018-03-24T17:25:16.570Z,12.60
2018-03-24T17:27:42.819Z,12.50
2018-03-24T17:30:11.068Z,12.20
2018-03-24T17:32:37.323Z,12.20
2018-03-24T17:35:03.940Z,12.00
2018-03-24T17:37:30.237Z,12.00
2018-03-24T17:39:56.511Z,11.90
2018-03-24T17:42:22.796Z,11.80
2018-03-24T17:44:49.048Z,11.80
2018-03-24T17:47:15.369Z,11.40
2018-03-24T17:49:41.638Z,11.20
2018-03-24T17:52:07.867Z,11.40
2018-03-24T17:54:34.526Z,11.10
2018-03-24T17:57:00.813Z,11.10
2018-03-24T17:59:27.098Z,10.70
2018-03-24T18:01:53.384Z,10.80
2018-03-24T18:04:19.658Z,10.70
2018-03-24T18:06:45.899Z,10.60
2018-03-24T18:09:12.192Z,10.60
2018-03-24T18:11:38.442Z,10.40
2018-03-24T18:14:04.711Z,10.30
2018-03-24T18:16:30.978Z,10.30
2018-03-24T18:18:57.239Z,10.20
2018-03-24T18:21:23.523Z,10.00
2018-03-24T18:23:50.223Z,9.70
2018-03-24T18:26:16.543Z,9.70
2018-03-24T18:28:42.832Z,9.50
2018-03-24T18:31:09.167Z,9.50
2018-03-24T18:33:35.447Z,9.40
2018-03-24T18:36:01.758Z,9.20
2018-03-24T18:38:28.322Z,9.20
2018-03-24T18:40:54.544Z,9.20
2018-03-24T18:43:20.816Z,9.00
2018-03-24T18:45:47.049Z,8.90
2018-03-24T18:48:13.358Z,8.70
2018-03-24T18:50:39.990Z,8.60
2018-03-24T18:53:06.238Z,8.60
2018-03-24T18:55:32.506Z,8.50
2018-03-24T18:57:58.853Z,8.50
2018-03-24T19:00:26.208Z,8.40
2018-03-24T19:02:52.471Z,8.30
2018-03-24T19:05:19.082Z,8.10
2018-03-24T19:07:45.348Z,8.10
2018-03-24T19:10:11.654Z,8.00
2018-03-24T19:12:37.943Z,8.00
2018-03-24T19:15:04.222Z,7.90
2018-03-24T19:17:30.836Z,7.70
2018-03-24T19:19:57.152Z,7.70
2018-03-24T19:22:23.372Z,7.60
2018-03-24T19:24:49.657Z,7.60
2018-03-24T19:27:15.891Z,7.50
2018-03-24T19:29:42.164Z,7.40
2018-03-24T19:32:08.438Z,7.40
2018-03-24T19:34:35.076Z,7.10
2018-03-24T19:37:01.776Z,7.00
2018-03-24T19:39:28.040Z,7.00
2018-03-24T19:41:54.270Z,7.00
2018-03-24T19:44:21.223Z,7.00
2018-03-24T19:46:47.477Z,6.90
2018-03-24T19:49:13.733Z,6.80
2018-03-24T19:51:40.015Z,6.80
2018-03-24T19:54:06.306Z,6.70
2018-03-24T19:56:32.592Z,6.50
2018-03-24T19:59:00.764Z,6.50
2018-03-24T20:01:27.082Z,6.40
2018-03-24T20:03:53.329Z,6.40
2018-03-24T20:06:20.557Z,6.30
2018-03-24T20:08:46.863Z,6.20
2018-03-24T20:11:13.127Z,6.20
2018-03-24T20:13:39.663Z,6.20
2018-03-24T20:16:05.889Z,6.10
2018-03-24T20:18:32.160Z,6.20
2018-03-24T20:20:58.443Z,6.20
2018-03-24T20:23:24.677Z,6.10
2018-03-24T20:25:50.957Z,6.10
2018-03-24T20:28:17.272Z,6.10
2018-03-24T20:30:43.541Z,6.10
2018-03-24T20:33:09.776Z,6.10
2018-03-24T20:35:37.746Z,6.10
2018-03-24T20:38:03.975Z,6.00
2018-03-24T20:40:30.236Z,5.90
2018-03-24T20:42:56.524Z,5.90
2018-03-24T20:45:22.764Z,5.90
2018-03-24T20:47:49.060Z,5.90
2018-03-24T20:50:15.717Z,5.80
2018-03-24T20:52:42.000Z,5.80
2018-03-24T20:55:08.337Z,5.70
2018-03-24T20:57:34.605Z,5.60
2018-03-24T21:00:01.272Z,5.50
2018-03-24T21:02:27.625Z,5.50
2018-03-24T21:04:53.916Z,5.50
2018-03-24T21:07:20.211Z,5.40
2018-03-24T21:09:46.494Z,5.40
2018-03-24T21:12:12.815Z,5.40
2018-03-24T21:14:39.123Z,5.30
2018-03-24T21:17:05.366Z,5.30
2018-03-24T21:19:31.634Z,5.40
2018-03-24T21:21:57.898Z,5.40
2018-03-24T21:24:24.591Z,5.30
2018-03-24T21:26:50.845Z,5.30
2018-03-24T21:29:17.171Z,5.20
2018-03-24T21:31:43.441Z,5.20
2018-03-24T21:34:09.713Z,5.20
2018-03-24T21:36:35.980Z,5.20
2018-03-24T21:39:02.313Z,5.10
2018-03-24T21:41:28.963Z,5.10
2018-03-24T21:43:55.234Z,5.10
2018-03-24T21:46:21.464Z,5.00
2018-03-24T21:48:47.765Z,5.00
2018-03-24T21:51:14.013Z,5.00
2018-03-24T21:53:40.323Z,5.00
2018-03-24T21:56:06.614Z,4.90
2018-03-24T21:58:33.132Z,4.90
2018-03-24T22:01:01.167Z,4.90
2018-03-24T22:03:27.466Z,4.80
2018-03-24T22:05:54.136Z,4.80
2018-03-24T22:08:20.369Z,4.80
2018-03-24T22:10:46.586Z,4.80
2018-03-24T22:13:12.858Z,4.80
2018-03-24T22:15:40.093Z,4.80
2018-03-24T22:18:06.369Z,4.70
2018-03-24T22:20:32.643Z,4.80
2018-03-24T22:22:58.888Z,4.70
2018-03-24T22:25:26.152Z,4.70
2018-03-24T22:27:52.467Z,4.70
2018-03-24T22:30:18.767Z,4.60
2018-03-24T22:32:45.070Z,4.50
2018-03-24T22:35:11.723Z,4.40
2018-03-24T22:37:37.994Z,4.40
2018-03-24T22:40:04.268Z,4.30
2018-03-24T22:42:30.806Z,4.20
2018-03-24T22:44:57.829Z,4.20
2018-03-24T22:47:24.476Z,4.00
2018-03-24T22:49:51.120Z,3.90
2018-03-24T22:52:17.386Z,3.90
2018-03-24T22:54:43.689Z,3.90
2018-03-24T22:57:11.343Z,3.70
2018-03-24T22:59:37.954Z,3.70
2018-03-24T23:02:04.926Z,3.70
2018-03-24T23:04:31.606Z,3.50
2018-03-24T23:06:57.847Z,3.50
2018-03-24T23:09:24.092Z,3.60
2018-03-24T23:11:50.384Z,3.50
2018-03-24T23:14:17.541Z,3.50
2018-03-24T23:16:43.792Z,3.40
2018-03-24T23:19:11.092Z,3.50
2018-03-24T23:21:37.342Z,3.50
2018-03-24T23:24:03.621Z,3.50
2018-03-24T23:26:29.857Z,3.50
2018-03-24T23:28:56.508Z,3.50
2018-03-24T23:31:23.122Z,3.40
2018-03-24T23:33:49.320Z,3.40
2018-03-24T23:36:15.584Z,3.30
2018-03-24T23:38:42.165Z,3.20
2018-03-24T23:41:08.449Z,3.20
2018-03-24T23:43:35.041Z,3.20
2018-03-24T23:46:01.282Z,3.20
2018-03-24T23:48:27.543Z,3.20
2018-03-24T23:50:54.147Z,3.10
2018-03-24T23:53:20.403Z,3.10
2018-03-24T23:55:46.985Z,3.00
2018-03-24T23:58:13.245Z,3.00
